Ride Results

Tom Quilty Gold Cup (14-06-1980)
Ride distance: 160.0 km

Outcomes - Tom Quilty Gold Cup (14-06-1980)
Division No. of Entries Retired / DNE Completed Withdrawn Ineligible V/O Percentage Completed
OP 49 - 38 3 - 8 77.55%
Totals 49 - 38 3 - 8 77.55%
Results - Tom Quilty Gold Cup (14-06-1980)
No. Rider Horse Place Time Leg Speeds Total
Km/Hr
H/R bpm
Open
9 Larry Ross El Teco 1 10:16:13 11.3, 21.8, 18.7, 14.3 15.58 0, 40, 44, 53, 57 (Avg:48)
49 Bernie Harris Lady Millicent 2 (BC) 10:16:31 11.3, 21.8, 18.7, 14.3 15.57 0, 41, 44, 46, 58 (Avg:47)
37 Eric Robinson Anatole 3 10:22:37 11.3, 21.8, 18.7, 13.8 15.42 0, 40, 46, 44, 53 (Avg:45)
4 Stephen Feighan Sultan 4 10:22:38 11.3, 22.0, 18.7, 13.8 15.42 0, 41, 43, 53, 57 (Avg:48)
47 Carmen Batterham Country (Syx Vec) 5 10:30:52 11.3, 21.8, 18.7, 13.1 15.22 0, 45, 46, 56, 60 (Avg:51)
40 Gordon Hobday Oonoonba Leo 6 11:13:11 9.9, 18.4, 17.6, 14.3 14.26 0, 48, 45, 45, 47 (Avg:46)
43 Sue May Karella Buckshot 7 11:54:08 11.3, 19.5, 15.1, 10.8 13.44 0, 38, 36, 40, 41 (Avg:38)
12 Larry Maudsley Yul-arai El Scorpio 8 12:22:18 11.0, 19.8, 15.4, 9.6 12.93 0, 43, 42, 44, 52 (Avg:45)
11 Shane Maudsley Shenandoah Carmen 9 12:24:58 11.0, 19.8, 15.4, 9.5 12.89 0, 43, 44, 52, 57 (Avg:49)
3 Robyn Clark Azrikam Kahli 10 12:43:36 11.0, 19.8, 14.2, 9.3 12.57 0, 42, 43, 47, 48 (Avg:45)
10 Marianne Van der Ham Cherokee Persian Chief 10 12:43:36 10.6, 19.1, 13.9, 9.9 12.57 0, 47, 48, 48, 58 (Avg:50)
42 Don Paton Peppy 12 13:42:34 8.5, 20.3, 14.9, 9.1 11.67 0, 39, 44, 43, 56 (Avg:45)
26 Jenny Oliver Lynbrook Santos 13 13:46:51 9.1, 19.3, 13.7, 8.9 11.61 0, 41, 45, 48, 54 (Avg:47)
39 Alan Mackinder Shannon 14 15:10:17 11.3, 19.5, 11.7, 6.4 10.55 0, 41, 47, 48, 50 (Avg:46)
13 Coleen Taylor Moana Omah 15 15:33:22 9.0, 19.3, 12.4, 6.8 10.29 0, 44, 45, 54, 48 (Avg:47)
22 Sandra Himsley Ralvon Aeneas 16 15:36:18 7.8, 15.6, 14.2, 7.7 10.25 0, 40, 36, 51, 55 (Avg:45)
30 Jackie Mann Retford Mantilla Les 17 15:36:19 8.6, 16.3, 11.7, 7.7 10.25 0, 44, 37, 41, 39 (Avg:40)
14 Linda Johnson Kojak 18 15:55:25 9.1, 18.0, 12.1, 6.6 10.05 0, 59, 48, 60, 57 (Avg:56)
32 John Gilbert Domino 19 15:55:26 8.6, 16.4, 13.5, 6.7 10.05 0, 49, 46, 50, 49 (Avg:48)
25 Brian Waters Brush Creek Bolar 20 17:21:43 8.1, 15.4, 10.9, 6.4 9.22 0, 40, 42, 47, 43 (Avg:43)
1 Malcolm Snedden Miss Maxine 21 17:21:44 8.1, 15.4, 10.9, 6.4 9.22 0, 44, 46, 48, 48 (Avg:46)
45 Sue Parsons Swagman 22 17:44:44 7.5, 18.6, 9.9, 6.3 9.02 0, 57, 51, 55, 51 (Avg:53)
15 Graham Blackwood Shay 'B' 23 17:46:29 8.8, 14.6, 10.7, 5.8 9.00 0, 40, 46, 51, 46 (Avg:45)
5 David Mortimer Gai Grenadier 24 18:02:23 7.5, 15.2, 10.7, 6.2 8.87 0, 41, 52, 51, 46 (Avg:47)
16 Robin Keyes Scythos 25 18:05:31 8.4, 16.7, 10.9, 5.4 8.84 0, 44, 46, 52, 44 (Avg:46)
17 Sue Hunt Suede 26 18:05:32 8.4, 16.7, 10.8, 5.4 8.84 0, 40, 41, 44, 37 (Avg:40)
38 Alison Nicholas Mikado 27 18:14:23 7.5, 15.2, 10.7, 6.0 8.77 0, 45, 46, 50, 46 (Avg:46)
27 Denise Trollope Reymique 27 18:14:23 7.6, 16.3, 10.2, 6.0 8.77 0, 52, 47, 51, 48 (Avg:49)
41 Anthony Parker Guardsman 29 18:14:25 7.4, 15.0, 10.8, 6.1 8.77 0, 42, 44, 55, 49 (Avg:47)
21 Kit Oshannessy O-Malleys Pride 30 18:15:27 7.8, 15.6, 9.8, 6.1 8.76 0, 44, 49, 52, 47 (Avg:48)
8 Sam Timms Tallyho 31 18:15:28 6.9, 15.5, 10.8, 6.3 8.76 0, 44, 42, 44, 32 (Avg:40)
6 Gaye Kerr Cedar 32 18:41:31 8.1, 18.1, 10.9, 5.0 8.56 0, 40, 40, 41, 36 (Avg:39)
35 Fred Holland(Bvsc) Trumby 33 18:41:32 8.1, 18.1, 10.9, 5.0 8.56 0, 44, 45, 51, 48 (Avg:47)
34 Janet(E) Rose Maizie 34 19:48:24 7.3, 14.3, 10.3, 5.1 8.08 0, 44, 47, 50, 46 (Avg:46)
2 Susan Tandy King Ranch Groom 35 19:50:01 7.5, 14.9, 10.1, 5.0 8.07 0, 57, 57, 60, 53 (Avg:56)
18 Colin Miners Buster 36 20:28:14 6.8, 14.6, 8.9, 5.3 7.82 0, 46, 41, 44, 44 (Avg:43)
36 Neville Clarke Bushman 37 20:28:15 6.8, 14.6, 8.9, 5.3 7.82 0, 48, 40, 51, 51 (Avg:47)
19 Rebecca Bell Smokey 38 20:28:16 6.8, 14.6, 8.9, 5.3 7.82 0, 46, 43, 47, 47 (Avg:45)
20 Arch Anderson Iraki Al Rashid Lame L4 0:00:00 8.1, 15.4, 10.9, 6.4 - 0, 41, 43, 44, 44 (Avg:43)
31 Lyn Bailey Ralvon Review Lame L4 0:00:00 7.5, 15.2, 10.7, 6.0 - 0, 38, 42, 44, 39 (Avg:40)
23 Ian Earlam Nutmeg Lame L4 0:00:00 10.6, 19.6, 12.5, 6.4 - 0, 40, 42, 47, 43 (Avg:43)
48 Ray Jones Ralvon Lymon Lame L4 0:00:00 11.3, 21.8, 18.7, 14.2 - 0, 40, 45, 51, 55 (Avg:47)
33 John Gilbert Wootton Jigsaw Lame L3 0:00:00 8.3, 17.5, 11.7 - 35, 40, 48 (Avg:41)
28 Searle Johnston Adios Lame L3 0:00:00 7.3, 15.8, 10.9 - 0, 45, 50, 51 (Avg:48)
46 June Petersen Arabesque Pharoah Widthdrawn L2 0:00:00 - - 0, 38, 45 (Avg:41)
24 John Briggs Sanroblee Sinfleet Widthdrawn L1 0:00:00 - - 0, 40 (Avg:40)
44 William McMillan Two Peaks Lame L1 0:00:00 9.7 - 0, 42 (Avg:42)
7 Betty Serpell Scimitar Quick Silver Lame L1 0:00:00 7.5 - 0, 42 (Avg:42)
29 Cheryl Mackander Hillview Queen Star Widthdrawn P/R 0:00:00 - - 0